createdAt,value
2023-01-11T00:02:09.808Z,21.73
2023-01-11T00:07:12.485Z,20.03
2023-01-11T00:12:15.190Z,16.40
2023-01-11T00:17:17.562Z,15.87
2023-01-11T00:22:20.342Z,24.07
2023-01-11T00:27:22.593Z,13.77
2023-01-11T00:32:25.159Z,15.10
2023-01-11T00:37:27.388Z,14.00
2023-01-11T00:42:48.417Z,11.73
2023-01-11T00:48:04.916Z,13.73
2023-01-11T00:53:08.922Z,12.13
2023-01-11T00:58:11.150Z,11.90
2023-01-11T01:03:13.376Z,11.40
2023-01-11T01:08:15.966Z,10.70
2023-01-11T01:13:36.991Z,10.73
2023-01-11T01:18:39.282Z,15.40
2023-01-11T01:23:41.510Z,12.10
2023-01-11T01:28:43.759Z,12.30
2023-01-11T01:33:45.989Z,10.83
2023-01-11T01:38:48.311Z,11.90
2023-01-11T01:43:58.945Z,30.07
2023-01-11T01:49:11.986Z,28.83
2023-01-11T01:54:18.696Z,23.50
2023-01-11T01:59:22.642Z,19.53
2023-01-11T02:04:38.707Z,15.37
2023-01-11T02:09:57.133Z,15.80
2023-01-11T02:15:01.218Z,18.27
2023-01-11T02:20:17.498Z,18.13
2023-01-11T02:25:41.689Z,20.87
2023-01-11T02:31:08.945Z,16.30
2023-01-11T02:36:31.020Z,16.17
2023-01-11T02:42:04.790Z,16.60
2023-01-11T02:47:17.794Z,15.70
2023-01-11T02:52:55.441Z,14.60
2023-01-11T02:58:00.822Z,14.43
2023-01-11T03:03:10.674Z,12.73
2023-01-11T03:08:28.159Z,13.23
2023-01-11T03:13:39.658Z,14.97
2023-01-11T03:18:53.501Z,17.40
2023-01-11T03:24:02.000Z,13.67
2023-01-11T03:29:21.885Z,16.53
2023-01-11T03:34:51.548Z,14.03
2023-01-11T03:40:07.375Z,14.70
2023-01-11T03:45:10.280Z,14.77
2023-01-11T03:50:13.768Z,13.70
2023-01-11T03:55:16.956Z,16.40
2023-01-11T04:00:21.017Z,13.87
2023-01-11T04:05:23.374Z,15.60
2023-01-11T04:10:25.592Z,13.17
2023-01-11T04:15:30.792Z,14.43
2023-01-11T04:20:34.977Z,19.60
2023-01-11T04:25:37.531Z,16.93
2023-01-11T04:30:39.837Z,15.80
2023-01-11T04:35:42.327Z,15.27
2023-01-11T04:40:44.766Z,14.57
2023-01-11T04:45:47.102Z,13.57
2023-01-11T04:50:49.423Z,12.83
2023-01-11T04:55:53.573Z,12.70
2023-01-11T05:00:55.820Z,12.57
2023-01-11T05:06:00.025Z,13.47
2023-01-11T05:11:05.115Z,13.83
2023-01-11T05:16:10.120Z,12.57
2023-01-11T05:21:14.167Z,13.17
2023-01-11T05:26:24.315Z,14.43
2023-01-11T05:31:27.248Z,13.50
2023-01-11T05:36:29.813Z,20.53
2023-01-11T05:41:32.120Z,34.60
2023-01-11T05:46:36.506Z,13.17
2023-01-11T05:51:40.690Z,13.30
2023-01-11T05:56:43.069Z,13.50
2023-01-11T06:01:45.469Z,11.10
2023-01-11T06:06:47.840Z,12.27
2023-01-11T06:11:50.610Z,11.03
2023-01-11T06:16:53.554Z,13.80
2023-01-11T06:21:55.803Z,11.43
2023-01-11T06:26:58.058Z,14.82
2023-01-11T06:32:00.369Z,10.27
2023-01-11T06:37:02.709Z,8.90
2023-01-11T06:42:05.116Z,8.70
2023-01-11T06:47:07.368Z,9.83
2023-01-11T06:52:09.582Z,9.93
2023-01-11T06:57:12.084Z,10.77
2023-01-11T07:02:14.359Z,12.87
2023-01-11T07:07:16.785Z,12.07
2023-01-11T07:12:19.100Z,12.37
2023-01-11T07:17:21.950Z,11.10
2023-01-11T07:22:24.353Z,10.73
2023-01-11T07:27:26.658Z,11.03
2023-01-11T07:32:29.074Z,13.57
2023-01-11T07:37:32.768Z,12.33
2023-01-11T07:42:53.457Z,20.97
2023-01-11T07:47:55.681Z,16.23
2023-01-11T07:52:58.025Z,12.47
2023-01-11T07:58:00.373Z,10.93
2023-01-11T08:03:03.038Z,14.03
2023-01-11T08:08:06.337Z,23.50
2023-01-11T08:13:30.731Z,24.10
2023-01-11T08:18:33.388Z,12.53
2023-01-11T08:23:35.678Z,15.10
2023-01-11T08:28:37.908Z,11.53
2023-01-11T08:33:40.827Z,17.50
2023-01-11T08:38:44.040Z,11.07
2023-01-11T08:43:46.397Z,15.83
2023-01-11T08:48:48.799Z,11.00
2023-01-11T08:53:52.546Z,13.00
2023-01-11T08:58:54.871Z,11.60
2023-01-11T09:03:57.297Z,10.33
2023-01-11T09:08:59.515Z,8.37
2023-01-11T09:14:01.836Z,14.63
2023-01-11T09:19:04.281Z,16.30
2023-01-11T09:24:06.928Z,9.27
2023-01-11T09:29:10.309Z,7.40
2023-01-11T09:34:13.248Z,15.13
2023-01-11T09:39:18.789Z,19.23
2023-01-11T09:44:25.489Z,14.63
2023-01-11T09:49:31.392Z,6.63
2023-01-11T09:54:34.401Z,11.20
2023-01-11T10:00:00.969Z,8.83
2023-01-11T10:05:34.793Z,6.57
2023-01-11T10:18:32.233Z,10.20
2023-01-11T10:22:08.557Z,46.30
2023-01-11T10:27:30.886Z,38.93
2023-01-11T10:32:53.234Z,61.80
2023-01-11T10:38:22.119Z,33.00
2023-01-11T10:43:26.590Z,23.40
2023-01-11T10:48:37.745Z,21.03
2023-01-11T10:53:55.170Z,9.00
2023-01-11T10:59:07.492Z,8.67
2023-01-11T11:04:26.099Z,15.47
2023-01-11T11:09:38.050Z,5.17
2023-01-11T11:14:46.059Z,4.63
2023-01-11T11:19:48.456Z,9.73
2023-01-11T11:24:59.673Z,8.93
2023-01-11T11:30:02.060Z,16.07
2023-01-11T11:35:07.733Z,7.63
2023-01-11T11:40:37.813Z,13.63
2023-01-11T11:45:57.152Z,13.30
2023-01-11T11:51:03.276Z,20.70
2023-01-11T11:56:17.980Z,24.67
2023-01-11T12:01:36.584Z,17.17
2023-01-11T12:06:40.779Z,14.30
2023-01-11T12:11:48.604Z,11.67
2023-01-11T12:16:50.853Z,72.53
2023-01-11T12:21:53.374Z,29.60
2023-01-11T12:27:41.732Z,40.30
2023-01-11T12:33:02.976Z,8.63
2023-01-11T12:38:26.676Z,12.73
2023-01-11T12:43:49.369Z,19.50
2023-01-11T12:49:00.720Z,16.43
2023-01-11T12:54:05.928Z,37.27
2023-01-11T12:59:25.318Z,11.47
2023-01-11T13:04:42.375Z,16.90
2023-01-11T13:10:24.005Z,6.53
2023-01-11T13:15:53.969Z,11.70
2023-01-11T13:21:03.912Z,11.17
2023-01-11T13:26:23.479Z,8.47
2023-01-11T13:31:26.790Z,8.40
2023-01-11T13:36:39.934Z,6.83
2023-01-11T13:41:47.328Z,7.40
2023-01-11T13:47:20.808Z,9.33
2023-01-11T13:52:37.273Z,9.33
2023-01-11T13:58:05.718Z,7.40
2023-01-11T14:03:36.061Z,9.63
2023-01-11T14:09:00.505Z,16.13
2023-01-11T14:14:46.417Z,15.83
2023-01-11T14:20:01.868Z,12.17
2023-01-11T14:25:14.596Z,7.50
2023-01-11T14:30:25.486Z,12.40
2023-01-11T14:35:49.948Z,11.77
2023-01-11T14:41:19.988Z,9.10
2023-01-11T14:47:12.822Z,12.07
2023-01-11T14:52:34.440Z,32.07
2023-01-11T14:57:59.696Z,19.67
2023-01-11T15:03:01.905Z,23.13
2023-01-11T15:08:34.323Z,60.97
2023-01-11T15:13:45.948Z,7.70
2023-01-11T15:18:48.196Z,10.50
2023-01-11T15:23:54.913Z,14.43
2023-01-11T15:29:01.371Z,13.33
2023-01-11T15:34:27.205Z,26.20
2023-01-11T15:39:46.577Z,11.73
2023-01-11T15:45:18.939Z,8.17
2023-01-11T15:50:45.342Z,8.80
2023-01-11T15:56:21.231Z,20.93
2023-01-11T16:01:30.693Z,16.63
2023-01-11T16:07:03.114Z,10.67
2023-01-11T16:12:26.711Z,7.57
2023-01-11T16:17:29.631Z,13.23
2023-01-11T16:22:31.897Z,8.90
2023-01-11T16:27:35.210Z,18.47
2023-01-11T16:32:37.680Z,11.47
2023-01-11T16:37:45.153Z,19.43
2023-01-11T16:42:51.569Z,8.67
2023-01-11T16:48:13.796Z,6.90
2023-01-11T16:53:16.684Z,7.97
2023-01-11T16:58:29.803Z,8.60
2023-01-11T17:03:37.123Z,9.03
2023-01-11T17:08:45.147Z,6.47
2023-01-11T17:14:24.652Z,7.33
2023-01-11T17:19:29.915Z,6.83
2023-01-11T17:24:39.937Z,5.60
2023-01-11T17:29:44.611Z,7.77
2023-01-11T17:34:48.508Z,6.10
2023-01-11T17:39:54.815Z,6.67
2023-01-11T17:45:13.536Z,6.97
2023-01-11T17:50:39.439Z,7.13
2023-01-11T17:55:55.955Z,8.13
2023-01-11T18:01:14.824Z,11.40
2023-01-11T18:06:39.968Z,10.83
2023-01-11T18:11:42.758Z,14.60
2023-01-11T18:17:05.559Z,36.03
2023-01-11T18:22:29.637Z,20.40
2023-01-11T18:27:34.298Z,23.63
2023-01-11T18:32:41.613Z,19.37
2023-01-11T18:37:43.894Z,68.53
2023-01-11T18:42:48.453Z,14.87
2023-01-11T18:47:51.051Z,16.50
2023-01-11T18:52:53.409Z,16.93
2023-01-11T18:57:57.503Z,72.67
2023-01-11T19:03:01.066Z,20.77
2023-01-11T19:08:03.352Z,18.43
2023-01-11T19:13:05.594Z,19.03
2023-01-11T19:18:07.850Z,44.47
2023-01-11T19:23:10.099Z,17.60
2023-01-11T19:28:12.319Z,68.63
2023-01-11T19:33:14.629Z,40.23
2023-01-11T19:38:18.492Z,19.93
2023-01-11T19:43:20.750Z,19.17
2023-01-11T19:48:23.699Z,23.00
2023-01-11T19:53:25.964Z,27.77
2023-01-11T19:58:28.206Z,31.80
2023-01-11T20:03:30.430Z,24.97
2023-01-11T20:08:36.052Z,50.67
2023-01-11T20:13:39.283Z,23.20
2023-01-11T20:18:42.777Z,21.33
2023-01-11T20:23:45.093Z,33.23
2023-01-11T20:28:54.453Z,33.13
2023-01-11T20:33:57.379Z,24.07
2023-01-11T20:38:59.732Z,22.53
2023-01-11T20:44:02.151Z,23.87
2023-01-11T20:49:06.580Z,21.57
2023-01-11T20:54:09.026Z,19.90
2023-01-11T20:59:13.564Z,25.43
2023-01-11T21:04:17.953Z,26.87
2023-01-11T21:09:20.183Z,20.33
2023-01-11T21:14:23.319Z,20.87
2023-01-11T21:19:25.749Z,24.13
2023-01-11T21:24:28.140Z,18.80
2023-01-11T21:29:30.458Z,84.27
2023-01-11T21:34:32.737Z,171.90
2023-01-11T21:39:35.054Z,230.60
2023-01-11T21:44:37.310Z,176.93
2023-01-11T21:49:39.868Z,88.17
2023-01-11T21:54:42.113Z,21.80
2023-01-11T21:59:44.330Z,28.73
2023-01-11T22:04:46.641Z,25.73
2023-01-11T22:10:03.706Z,27.50
2023-01-11T22:15:07.359Z,33.40
2023-01-11T22:20:10.654Z,26.60
2023-01-11T22:25:12.924Z,19.57
2023-01-11T22:30:15.439Z,68.03
2023-01-11T22:35:17.735Z,42.90
2023-01-11T22:40:19.987Z,317.40
2023-01-11T22:45:22.241Z,124.40
2023-01-11T22:50:24.936Z,25.57
2023-01-11T22:55:27.185Z,125.47
2023-01-11T23:00:29.476Z,146.47
2023-01-11T23:05:31.738Z,121.47
2023-01-11T23:10:33.991Z,103.87
2023-01-11T23:15:39.626Z,55.33
2023-01-11T23:20:41.931Z,115.47
2023-01-11T23:25:44.183Z,71.93
2023-01-11T23:30:46.408Z,24.10
2023-01-11T23:35:56.414Z,25.00
2023-01-11T23:41:24.422Z,32.57
2023-01-11T23:46:45.187Z,38.90
2023-01-11T23:51:48.084Z,92.53
2023-01-11T23:56:50.295Z,199.50
